sensor_id;sensor_type;location;lat;lon;timestamp;P1;durP1;ratioP1;P2;durP2;ratioP2
54745;SDS011;40640;48.130;11.356;2023-05-14T00:02:05;14.00;;;7.53;;
54745;SDS011;40640;48.130;11.356;2023-05-14T00:06:08;8.60;;;6.03;;
54745;SDS011;40640;48.130;11.356;2023-05-14T00:10:11;22.15;;;14.07;;
54745;SDS011;40640;48.130;11.356;2023-05-14T00:14:14;19.08;;;11.15;;
54745;SDS011;40640;48.130;11.356;2023-05-14T00:18:18;32.60;;;17.02;;
54745;SDS011;40640;48.130;11.356;2023-05-14T00:22:21;25.85;;;16.38;;
54745;SDS011;40640;48.130;11.356;2023-05-14T00:26:24;24.45;;;16.58;;
54745;SDS011;40640;48.130;11.356;2023-05-14T00:30:27;22.90;;;16.13;;
54745;SDS011;40640;48.130;11.356;2023-05-14T00:34:31;27.85;;;17.08;;
54745;SDS011;40640;48.130;11.356;2023-05-14T00:38:34;24.15;;;16.35;;
54745;SDS011;40640;48.130;11.356;2023-05-14T00:42:37;26.13;;;15.75;;
54745;SDS011;40640;48.130;11.356;2023-05-14T00:46:41;17.77;;;11.35;;
54745;SDS011;40640;48.130;11.356;2023-05-14T00:50:46;19.15;;;11.88;;
54745;SDS011;40640;48.130;11.356;2023-05-14T00:54:50;16.98;;;11.82;;
54745;SDS011;40640;48.130;11.356;2023-05-14T00:58:53;19.02;;;12.30;;
54745;SDS011;40640;48.130;11.356;2023-05-14T01:02:56;23.05;;;14.73;;
54745;SDS011;40640;48.130;11.356;2023-05-14T01:07:06;23.53;;;14.60;;
54745;SDS011;40640;48.130;11.356;2023-05-14T01:11:16;23.42;;;15.57;;
54745;SDS011;40640;48.130;11.356;2023-05-14T01:15:23;23.80;;;15.00;;
54745;SDS011;40640;48.130;11.356;2023-05-14T01:19:32;30.10;;;16.38;;
54745;SDS011;40640;48.130;11.356;2023-05-14T01:23:39;22.10;;;15.15;;
54745;SDS011;40640;48.130;11.356;2023-05-14T01:27:44;24.67;;;15.48;;
54745;SDS011;40640;48.130;11.356;2023-05-14T01:31:51;24.50;;;15.60;;
54745;SDS011;40640;48.130;11.356;2023-05-14T01:35:57;22.98;;;15.57;;
54745;SDS011;40640;48.130;11.356;2023-05-14T01:40:01;26.95;;;16.67;;
54745;SDS011;40640;48.130;11.356;2023-05-14T01:44:06;21.10;;;14.13;;
54745;SDS011;40640;48.130;11.356;2023-05-14T01:48:10;23.85;;;15.02;;
54745;SDS011;40640;48.130;11.356;2023-05-14T01:52:15;24.63;;;15.43;;
54745;SDS011;40640;48.130;11.356;2023-05-14T01:56:22;25.65;;;15.65;;
54745;SDS011;40640;48.130;11.356;2023-05-14T02:00:25;26.58;;;16.48;;
54745;SDS011;40640;48.130;11.356;2023-05-14T02:04:28;27.38;;;16.92;;
54745;SDS011;40640;48.130;11.356;2023-05-14T02:08:31;28.05;;;14.95;;
54745;SDS011;40640;48.130;11.356;2023-05-14T02:12:35;28.27;;;17.15;;
54745;SDS011;40640;48.130;11.356;2023-05-14T02:16:38;24.77;;;15.85;;
54745;SDS011;40640;48.130;11.356;2023-05-14T02:20:41;25.67;;;15.50;;
54745;SDS011;40640;48.130;11.356;2023-05-14T02:24:44;27.77;;;16.13;;
54745;SDS011;40640;48.130;11.356;2023-05-14T02:28:48;27.35;;;17.13;;
54745;SDS011;40640;48.130;11.356;2023-05-14T02:32:52;27.52;;;16.05;;
54745;SDS011;40640;48.130;11.356;2023-05-14T02:36:55;29.25;;;16.88;;
54745;SDS011;40640;48.130;11.356;2023-05-14T02:40:58;27.67;;;17.00;;
54745;SDS011;40640;48.130;11.356;2023-05-14T02:45:02;29.48;;;18.13;;
54745;SDS011;40640;48.130;11.356;2023-05-14T02:49:06;31.58;;;18.00;;
54745;SDS011;40640;48.130;11.356;2023-05-14T02:53:08;30.95;;;18.13;;
54745;SDS011;40640;48.130;11.356;2023-05-14T02:57:11;27.90;;;16.88;;
54745;SDS011;40640;48.130;11.356;2023-05-14T03:01:16;36.17;;;17.85;;
54745;SDS011;40640;48.130;11.356;2023-05-14T03:05:20;27.00;;;16.70;;
54745;SDS011;40640;48.130;11.356;2023-05-14T03:09:23;29.77;;;16.55;;
54745;SDS011;40640;48.130;11.356;2023-05-14T03:13:25;29.42;;;16.67;;
54745;SDS011;40640;48.130;11.356;2023-05-14T03:17:30;25.48;;;16.63;;
54745;SDS011;40640;48.130;11.356;2023-05-14T03:21:32;25.70;;;15.70;;
54745;SDS011;40640;48.130;11.356;2023-05-14T03:25:35;28.58;;;16.30;;
54745;SDS011;40640;48.130;11.356;2023-05-14T03:29:38;24.90;;;16.33;;
54745;SDS011;40640;48.130;11.356;2023-05-14T03:33:42;26.63;;;15.63;;
54745;SDS011;40640;48.130;11.356;2023-05-14T03:37:45;28.75;;;15.93;;
54745;SDS011;40640;48.130;11.356;2023-05-14T03:41:48;25.85;;;16.20;;
54745;SDS011;40640;48.130;11.356;2023-05-14T03:45:51;25.92;;;15.88;;
54745;SDS011;40640;48.130;11.356;2023-05-14T03:49:55;26.73;;;15.30;;
54745;SDS011;40640;48.130;11.356;2023-05-14T03:53:58;23.65;;;15.45;;
54745;SDS011;40640;48.130;11.356;2023-05-14T03:58:01;23.92;;;14.95;;
54745;SDS011;40640;48.130;11.356;2023-05-14T04:02:07;23.85;;;15.70;;
54745;SDS011;40640;48.130;11.356;2023-05-14T04:06:11;25.45;;;15.32;;
54745;SDS011;40640;48.130;11.356;2023-05-14T04:10:14;22.08;;;14.48;;
54745;SDS011;40640;48.130;11.356;2023-05-14T04:14:17;33.58;;;17.10;;
54745;SDS011;40640;48.130;11.356;2023-05-14T04:18:21;31.33;;;17.38;;
54745;SDS011;40640;48.130;11.356;2023-05-14T04:22:25;26.98;;;15.68;;
54745;SDS011;40640;48.130;11.356;2023-05-14T04:26:28;31.17;;;17.38;;
54745;SDS011;40640;48.130;11.356;2023-05-14T04:30:31;24.73;;;15.82;;
54745;SDS011;40640;48.130;11.356;2023-05-14T04:34:34;29.08;;;16.05;;
54745;SDS011;40640;48.130;11.356;2023-05-14T04:38:38;27.73;;;16.80;;
54745;SDS011;40640;48.130;11.356;2023-05-14T04:42:41;27.88;;;15.93;;
54745;SDS011;40640;48.130;11.356;2023-05-14T04:46:44;29.05;;;15.65;;
54745;SDS011;40640;48.130;11.356;2023-05-14T04:50:47;25.38;;;16.40;;
54745;SDS011;40640;48.130;11.356;2023-05-14T04:54:51;26.65;;;16.70;;
54745;SDS011;40640;48.130;11.356;2023-05-14T04:58:54;29.60;;;16.88;;
54745;SDS011;40640;48.130;11.356;2023-05-14T05:02:57;25.92;;;15.82;;
54745;SDS011;40640;48.130;11.356;2023-05-14T05:07:00;28.02;;;16.00;;
54745;SDS011;40640;48.130;11.356;2023-05-14T05:11:05;28.55;;;16.17;;
54745;SDS011;40640;48.130;11.356;2023-05-14T05:15:08;26.73;;;15.55;;
54745;SDS011;40640;48.130;11.356;2023-05-14T05:19:11;26.17;;;15.63;;
54745;SDS011;40640;48.130;11.356;2023-05-14T05:23:14;25.45;;;15.52;;
54745;SDS011;40640;48.130;11.356;2023-05-14T05:27:18;26.60;;;15.60;;
54745;SDS011;40640;48.130;11.356;2023-05-14T05:31:22;24.10;;;14.32;;
54745;SDS011;40640;48.130;11.356;2023-05-14T05:35:25;22.70;;;14.70;;
54745;SDS011;40640;48.130;11.356;2023-05-14T05:39:28;27.20;;;15.48;;
54745;SDS011;40640;48.130;11.356;2023-05-14T05:43:36;27.73;;;14.93;;
54745;SDS011;40640;48.130;11.356;2023-05-14T05:47:39;26.35;;;15.43;;
54745;SDS011;40640;48.130;11.356;2023-05-14T05:51:42;28.20;;;16.17;;
54745;SDS011;40640;48.130;11.356;2023-05-14T05:55:45;30.08;;;16.42;;
54745;SDS011;40640;48.130;11.356;2023-05-14T05:59:49;31.73;;;15.77;;
54745;SDS011;40640;48.130;11.356;2023-05-14T06:03:52;29.33;;;15.82;;
54745;SDS011;40640;48.130;11.356;2023-05-14T06:07:54;26.35;;;15.23;;
54745;SDS011;40640;48.130;11.356;2023-05-14T06:11:57;27.48;;;15.43;;
54745;SDS011;40640;48.130;11.356;2023-05-14T06:16:02;27.92;;;15.30;;
54745;SDS011;40640;48.130;11.356;2023-05-14T06:20:05;33.05;;;16.92;;
54745;SDS011;40640;48.130;11.356;2023-05-14T06:24:09;32.38;;;16.83;;
54745;SDS011;40640;48.130;11.356;2023-05-14T06:28:13;29.45;;;16.92;;
54745;SDS011;40640;48.130;11.356;2023-05-14T06:32:17;32.88;;;17.60;;
54745;SDS011;40640;48.130;11.356;2023-05-14T06:36:20;31.45;;;16.40;;
54745;SDS011;40640;48.130;11.356;2023-05-14T06:40:23;29.73;;;16.88;;
54745;SDS011;40640;48.130;11.356;2023-05-14T06:44:27;28.55;;;15.18;;
54745;SDS011;40640;48.130;11.356;2023-05-14T06:48:31;27.88;;;15.68;;
54745;SDS011;40640;48.130;11.356;2023-05-14T06:52:34;25.58;;;15.60;;
54745;SDS011;40640;48.130;11.356;2023-05-14T06:56:37;24.33;;;14.40;;
54745;SDS011;40640;48.130;11.356;2023-05-14T07:00:40;28.85;;;15.52;;
54745;SDS011;40640;48.130;11.356;2023-05-14T07:04:45;23.15;;;14.20;;
54745;SDS011;40640;48.130;11.356;2023-05-14T07:08:48;26.80;;;14.57;;
54745;SDS011;40640;48.130;11.356;2023-05-14T07:12:51;26.13;;;14.15;;
54745;SDS011;40640;48.130;11.356;2023-05-14T07:16:54;23.75;;;13.60;;
54745;SDS011;40640;48.130;11.356;2023-05-14T07:20:58;25.60;;;14.48;;
54745;SDS011;40640;48.130;11.356;2023-05-14T07:25:01;21.98;;;13.75;;
54745;SDS011;40640;48.130;11.356;2023-05-14T07:29:04;24.30;;;14.30;;
54745;SDS011;40640;48.130;11.356;2023-05-14T07:33:07;26.77;;;13.82;;
54745;SDS011;40640;48.130;11.356;2023-05-14T07:37:11;25.27;;;14.13;;
54745;SDS011;40640;48.130;11.356;2023-05-14T07:41:14;23.10;;;13.43;;
54745;SDS011;40640;48.130;11.356;2023-05-14T07:45:17;24.88;;;12.77;;
54745;SDS011;40640;48.130;11.356;2023-05-14T07:49:20;38.22;;;13.43;;
54745;SDS011;40640;48.130;11.356;2023-05-14T07:53:24;22.38;;;13.20;;
54745;SDS011;40640;48.130;11.356;2023-05-14T07:57:27;23.65;;;13.68;;
54745;SDS011;40640;48.130;11.356;2023-05-14T08:01:30;21.92;;;12.57;;
54745;SDS011;40640;48.130;11.356;2023-05-14T08:05:33;20.92;;;13.30;;
54745;SDS011;40640;48.130;11.356;2023-05-14T08:09:37;23.83;;;12.38;;
54745;SDS011;40640;48.130;11.356;2023-05-14T08:13:40;21.23;;;12.70;;
54745;SDS011;40640;48.130;11.356;2023-05-14T08:17:43;18.38;;;12.50;;
54745;SDS011;40640;48.130;11.356;2023-05-14T08:21:46;17.25;;;11.95;;
54745;SDS011;40640;48.130;11.356;2023-05-14T08:25:50;24.15;;;11.93;;
54745;SDS011;40640;48.130;11.356;2023-05-14T08:29:53;23.00;;;12.80;;
54745;SDS011;40640;48.130;11.356;2023-05-14T08:33:55;20.75;;;11.95;;
54745;SDS011;40640;48.130;11.356;2023-05-14T08:37:58;24.65;;;13.57;;
54745;SDS011;40640;48.130;11.356;2023-05-14T08:42:03;19.58;;;11.50;;
54745;SDS011;40640;48.130;11.356;2023-05-14T08:46:08;19.38;;;11.88;;
54745;SDS011;40640;48.130;11.356;2023-05-14T08:50:14;19.90;;;11.35;;
54745;SDS011;40640;48.130;11.356;2023-05-14T08:54:17;17.70;;;10.35;;
54745;SDS011;40640;48.130;11.356;2023-05-14T08:58:25;16.42;;;10.60;;
54745;SDS011;40640;48.130;11.356;2023-05-14T09:02:29;20.10;;;11.57;;
54745;SDS011;40640;48.130;11.356;2023-05-14T09:06:34;22.58;;;12.13;;
54745;SDS011;40640;48.130;11.356;2023-05-14T09:10:38;20.65;;;12.20;;
54745;SDS011;40640;48.130;11.356;2023-05-14T09:14:43;24.48;;;13.68;;
54745;SDS011;40640;48.130;11.356;2023-05-14T09:18:46;19.20;;;12.77;;
54745;SDS011;40640;48.130;11.356;2023-05-14T09:22:51;21.98;;;13.73;;
54745;SDS011;40640;48.130;11.356;2023-05-14T09:26:55;23.67;;;13.90;;
54745;SDS011;40640;48.130;11.356;2023-05-14T09:31:00;24.48;;;14.50;;
54745;SDS011;40640;48.130;11.356;2023-05-14T09:35:10;19.92;;;13.75;;
54745;SDS011;40640;48.130;11.356;2023-05-14T09:39:17;22.70;;;13.25;;
54745;SDS011;40640;48.130;11.356;2023-05-14T09:43:20;19.73;;;12.77;;
54745;SDS011;40640;48.130;11.356;2023-05-14T09:47:24;18.52;;;11.60;;
54745;SDS011;40640;48.130;11.356;2023-05-14T09:51:28;18.95;;;11.52;;
54745;SDS011;40640;48.130;11.356;2023-05-14T09:55:32;19.70;;;12.17;;
54745;SDS011;40640;48.130;11.356;2023-05-14T09:59:37;22.45;;;13.05;;
54745;SDS011;40640;48.130;11.356;2023-05-14T10:03:41;17.90;;;12.15;;
54745;SDS011;40640;48.130;11.356;2023-05-14T10:07:45;19.48;;;11.73;;
54745;SDS011;40640;48.130;11.356;2023-05-14T10:11:49;16.50;;;11.45;;
54745;SDS011;40640;48.130;11.356;2023-05-14T10:15:59;17.98;;;11.75;;
54745;SDS011;40640;48.130;11.356;2023-05-14T10:20:08;15.77;;;10.80;;
54745;SDS011;40640;48.130;11.356;2023-05-14T10:24:14;18.40;;;11.48;;
54745;SDS011;40640;48.130;11.356;2023-05-14T10:28:17;16.50;;;11.07;;
54745;SDS011;40640;48.130;11.356;2023-05-14T10:32:20;16.27;;;11.38;;
54745;SDS011;40640;48.130;11.356;2023-05-14T10:36:27;16.25;;;11.30;;
54745;SDS011;40640;48.130;11.356;2023-05-14T10:40:29;22.02;;;11.15;;
54745;SDS011;40640;48.130;11.356;2023-05-14T10:44:34;16.20;;;11.30;;
54745;SDS011;40640;48.130;11.356;2023-05-14T10:48:38;15.90;;;11.40;;
54745;SDS011;40640;48.130;11.356;2023-05-14T10:52:44;22.85;;;14.68;;
54745;SDS011;40640;48.130;11.356;2023-05-14T10:56:47;18.92;;;11.45;;
54745;SDS011;40640;48.130;11.356;2023-05-14T11:00:52;14.18;;;10.20;;
54745;SDS011;40640;48.130;11.356;2023-05-14T11:04:57;15.73;;;10.15;;
54745;SDS011;40640;48.130;11.356;2023-05-14T11:09:05;18.42;;;10.40;;
54745;SDS011;40640;48.130;11.356;2023-05-14T11:13:08;11.82;;;9.07;;
54745;SDS011;40640;48.130;11.356;2023-05-14T11:17:12;16.02;;;9.35;;
54745;SDS011;40640;48.130;11.356;2023-05-14T11:21:16;13.43;;;8.88;;
54745;SDS011;40640;48.130;11.356;2023-05-14T11:25:21;14.23;;;9.98;;
54745;SDS011;40640;48.130;11.356;2023-05-14T11:29:26;17.27;;;8.73;;
54745;SDS011;40640;48.130;11.356;2023-05-14T11:33:28;12.40;;;8.95;;
54745;SDS011;40640;48.130;11.356;2023-05-14T11:37:31;15.18;;;8.80;;
54745;SDS011;40640;48.130;11.356;2023-05-14T11:41:36;11.80;;;8.48;;
54745;SDS011;40640;48.130;11.356;2023-05-14T11:45:48;12.25;;;8.70;;
54745;SDS011;40640;48.130;11.356;2023-05-14T11:49:51;11.70;;;7.93;;
54745;SDS011;40640;48.130;11.356;2023-05-14T11:53:54;11.10;;;8.30;;
54745;SDS011;40640;48.130;11.356;2023-05-14T11:58:00;11.98;;;8.15;;
54745;SDS011;40640;48.130;11.356;2023-05-14T12:02:03;9.40;;;7.03;;
54745;SDS011;40640;48.130;11.356;2023-05-14T12:06:07;9.27;;;7.65;;
54745;SDS011;40640;48.130;11.356;2023-05-14T12:10:10;10.10;;;6.82;;
54745;SDS011;40640;48.130;11.356;2023-05-14T12:14:15;7.97;;;6.65;;
54745;SDS011;40640;48.130;11.356;2023-05-14T12:18:20;7.50;;;6.15;;
54745;SDS011;40640;48.130;11.356;2023-05-14T12:22:26;7.97;;;5.80;;
54745;SDS011;40640;48.130;11.356;2023-05-14T12:26:31;7.37;;;5.87;;
54745;SDS011;40640;48.130;11.356;2023-05-14T12:30:37;8.63;;;5.65;;
54745;SDS011;40640;48.130;11.356;2023-05-14T12:34:40;5.55;;;4.72;;
54745;SDS011;40640;48.130;11.356;2023-05-14T12:38:43;6.07;;;5.10;;
54745;SDS011;40640;48.130;11.356;2023-05-14T12:42:45;7.03;;;5.00;;
54745;SDS011;40640;48.130;11.356;2023-05-14T12:46:50;6.75;;;4.47;;
54745;SDS011;40640;48.130;11.356;2023-05-14T12:50:52;4.43;;;3.70;;
54745;SDS011;40640;48.130;11.356;2023-05-14T12:54:55;3.90;;;3.22;;
54745;SDS011;40640;48.130;11.356;2023-05-14T12:58:58;4.80;;;3.72;;
54745;SDS011;40640;48.130;11.356;2023-05-14T13:03:02;4.28;;;3.88;;
54745;SDS011;40640;48.130;11.356;2023-05-14T13:07:05;4.00;;;3.60;;
54745;SDS011;40640;48.130;11.356;2023-05-14T13:11:09;5.13;;;3.90;;
54745;SDS011;40640;48.130;11.356;2023-05-14T13:15:12;3.75;;;3.33;;
54745;SDS011;40640;48.130;11.356;2023-05-14T13:19:16;3.90;;;3.50;;
54745;SDS011;40640;48.130;11.356;2023-05-14T13:23:19;4.38;;;3.97;;
54745;SDS011;40640;48.130;11.356;2023-05-14T13:27:22;5.55;;;3.50;;
54745;SDS011;40640;48.130;11.356;2023-05-14T13:31:25;4.03;;;3.63;;
54745;SDS011;40640;48.130;11.356;2023-05-14T13:35:29;12.02;;;8.43;;
54745;SDS011;40640;48.130;11.356;2023-05-14T13:39:32;6.03;;;3.67;;
54745;SDS011;40640;48.130;11.356;2023-05-14T13:43:35;3.60;;;3.30;;
54745;SDS011;40640;48.130;11.356;2023-05-14T13:47:38;5.20;;;4.70;;
54745;SDS011;40640;48.130;11.356;2023-05-14T13:51:42;4.40;;;4.00;;
54745;SDS011;40640;48.130;11.356;2023-05-14T13:55:46;4.20;;;3.83;;
54745;SDS011;40640;48.130;11.356;2023-05-14T13:59:49;4.07;;;3.65;;
54745;SDS011;40640;48.130;11.356;2023-05-14T14:03:52;4.35;;;3.92;;
54745;SDS011;40640;48.130;11.356;2023-05-14T14:07:56;6.32;;;3.92;;
54745;SDS011;40640;48.130;11.356;2023-05-14T14:12:08;4.47;;;3.78;;
54745;SDS011;40640;48.130;11.356;2023-05-14T14:16:11;4.18;;;3.63;;
54745;SDS011;40640;48.130;11.356;2023-05-14T14:20:14;5.47;;;4.03;;
54745;SDS011;40640;48.130;11.356;2023-05-14T14:24:18;4.25;;;3.65;;
54745;SDS011;40640;48.130;11.356;2023-05-14T14:28:21;4.05;;;3.65;;
54745;SDS011;40640;48.130;11.356;2023-05-14T14:32:24;8.07;;;3.60;;
54745;SDS011;40640;48.130;11.356;2023-05-14T14:36:27;3.42;;;3.00;;
54745;SDS011;40640;48.130;11.356;2023-05-14T14:40:32;4.00;;;2.72;;
54745;SDS011;40640;48.130;11.356;2023-05-14T14:44:35;3.33;;;2.60;;
54745;SDS011;40640;48.130;11.356;2023-05-14T14:48:38;3.28;;;2.67;;
54745;SDS011;40640;48.130;11.356;2023-05-14T14:52:41;5.55;;;3.70;;
54745;SDS011;40640;48.130;11.356;2023-05-14T14:56:47;5.72;;;3.33;;
54745;SDS011;40640;48.130;11.356;2023-05-14T15:04:55;2.47;;;2.28;;
54745;SDS011;40640;48.130;11.356;2023-05-14T15:08:58;2.88;;;2.28;;
54745;SDS011;40640;48.130;11.356;2023-05-14T15:13:03;4.00;;;2.83;;
54745;SDS011;40640;48.130;11.356;2023-05-14T15:17:07;3.35;;;2.95;;
54745;SDS011;40640;48.130;11.356;2023-05-14T15:21:10;4.47;;;2.58;;
54745;SDS011;40640;48.130;11.356;2023-05-14T15:25:13;3.17;;;2.60;;
54745;SDS011;40640;48.130;11.356;2023-05-14T15:29:17;3.95;;;2.92;;
54745;SDS011;40640;48.130;11.356;2023-05-14T15:33:20;6.07;;;2.90;;
54745;SDS011;40640;48.130;11.356;2023-05-14T15:37:24;5.50;;;2.72;;
54745;SDS011;40640;48.130;11.356;2023-05-14T15:41:27;2.95;;;2.55;;
54745;SDS011;40640;48.130;11.356;2023-05-14T15:45:32;2.67;;;2.40;;
54745;SDS011;40640;48.130;11.356;2023-05-14T15:49:35;2.83;;;2.50;;
54745;SDS011;40640;48.130;11.356;2023-05-14T15:53:38;3.15;;;2.70;;
54745;SDS011;40640;48.130;11.356;2023-05-14T15:57:41;2.50;;;2.30;;
54745;SDS011;40640;48.130;11.356;2023-05-14T16:01:45;3.22;;;2.80;;
54745;SDS011;40640;48.130;11.356;2023-05-14T16:05:48;3.67;;;2.90;;
54745;SDS011;40640;48.130;11.356;2023-05-14T16:09:52;4.88;;;2.90;;
54745;SDS011;40640;48.130;11.356;2023-05-14T16:13:55;4.32;;;2.85;;
54745;SDS011;40640;48.130;11.356;2023-05-14T16:18:00;5.05;;;2.40;;
54745;SDS011;40640;48.130;11.356;2023-05-14T16:22:02;5.93;;;2.60;;
54745;SDS011;40640;48.130;11.356;2023-05-14T16:26:05;6.55;;;2.67;;
54745;SDS011;40640;48.130;11.356;2023-05-14T16:30:08;4.05;;;2.60;;
54745;SDS011;40640;48.130;11.356;2023-05-14T16:34:13;4.32;;;2.85;;
54745;SDS011;40640;48.130;11.356;2023-05-14T16:38:16;6.10;;;3.13;;
54745;SDS011;40640;48.130;11.356;2023-05-14T16:42:19;7.07;;;2.97;;
54745;SDS011;40640;48.130;11.356;2023-05-14T16:46:22;2.85;;;2.40;;
54745;SDS011;40640;48.130;11.356;2023-05-14T16:50:26;7.07;;;3.20;;
54745;SDS011;40640;48.130;11.356;2023-05-14T16:54:29;4.90;;;3.67;;
54745;SDS011;40640;48.130;11.356;2023-05-14T16:58:32;6.50;;;3.97;;
54745;SDS011;40640;48.130;11.356;2023-05-14T17:02:35;6.00;;;4.05;;
54745;SDS011;40640;48.130;11.356;2023-05-14T17:06:39;4.78;;;3.45;;
54745;SDS011;40640;48.130;11.356;2023-05-14T17:10:41;4.20;;;3.33;;
54745;SDS011;40640;48.130;11.356;2023-05-14T17:14:44;6.55;;;3.55;;
54745;SDS011;40640;48.130;11.356;2023-05-14T17:18:47;6.30;;;3.05;;
54745;SDS011;40640;48.130;11.356;2023-05-14T17:22:51;6.57;;;3.03;;
54745;SDS011;40640;48.130;11.356;2023-05-14T17:26:54;3.42;;;2.35;;
54745;SDS011;40640;48.130;11.356;2023-05-14T17:30:57;4.10;;;2.67;;
54745;SDS011;40640;48.130;11.356;2023-05-14T17:35:00;2.22;;;1.92;;
54745;SDS011;40640;48.130;11.356;2023-05-14T17:39:04;2.95;;;2.00;;
54745;SDS011;40640;48.130;11.356;2023-05-14T17:43:07;2.85;;;2.35;;
54745;SDS011;40640;48.130;11.356;2023-05-14T17:47:10;3.13;;;2.22;;
54745;SDS011;40640;48.130;11.356;2023-05-14T17:51:12;4.07;;;2.70;;
54745;SDS011;40640;48.130;11.356;2023-05-14T17:55:17;3.90;;;2.80;;
54745;SDS011;40640;48.130;11.356;2023-05-14T17:59:19;3.85;;;2.70;;
54745;SDS011;40640;48.130;11.356;2023-05-14T18:03:24;4.43;;;2.55;;
54745;SDS011;40640;48.130;11.356;2023-05-14T18:07:28;3.05;;;2.75;;
54745;SDS011;40640;48.130;11.356;2023-05-14T18:11:32;2.92;;;2.60;;
54745;SDS011;40640;48.130;11.356;2023-05-14T18:15:35;3.20;;;2.47;;
54745;SDS011;40640;48.130;11.356;2023-05-14T18:19:39;4.30;;;3.00;;
54745;SDS011;40640;48.130;11.356;2023-05-14T18:23:41;3.85;;;2.80;;
54745;SDS011;40640;48.130;11.356;2023-05-14T18:27:46;3.75;;;2.58;;
54745;SDS011;40640;48.130;11.356;2023-05-14T18:31:48;2.63;;;2.22;;
54745;SDS011;40640;48.130;11.356;2023-05-14T18:35:51;4.88;;;2.92;;
54745;SDS011;40640;48.130;11.356;2023-05-14T18:39:54;3.47;;;2.60;;
54745;SDS011;40640;48.130;11.356;2023-05-14T18:43:58;4.10;;;2.85;;
54745;SDS011;40640;48.130;11.356;2023-05-14T18:48:02;4.70;;;3.28;;
54745;SDS011;40640;48.130;11.356;2023-05-14T18:52:06;6.60;;;3.53;;
54745;SDS011;40640;48.130;11.356;2023-05-14T18:56:09;5.10;;;3.58;;
54745;SDS011;40640;48.130;11.356;2023-05-14T19:00:13;5.13;;;3.92;;
54745;SDS011;40640;48.130;11.356;2023-05-14T19:04:20;5.57;;;3.95;;
54745;SDS011;40640;48.130;11.356;2023-05-14T19:08:23;5.55;;;4.15;;
54745;SDS011;40640;48.130;11.356;2023-05-14T19:12:25;5.53;;;4.20;;
54745;SDS011;40640;48.130;11.356;2023-05-14T19:16:30;5.45;;;3.42;;
54745;SDS011;40640;48.130;11.356;2023-05-14T19:20:33;5.82;;;4.57;;
54745;SDS011;40640;48.130;11.356;2023-05-14T19:24:35;5.40;;;3.90;;
54745;SDS011;40640;48.130;11.356;2023-05-14T19:28:39;5.45;;;3.70;;
54745;SDS011;40640;48.130;11.356;2023-05-14T19:32:43;4.88;;;3.80;;
54745;SDS011;40640;48.130;11.356;2023-05-14T19:36:46;6.03;;;4.15;;
54745;SDS011;40640;48.130;11.356;2023-05-14T19:40:48;5.85;;;4.28;;
54745;SDS011;40640;48.130;11.356;2023-05-14T19:44:53;6.03;;;4.32;;
54745;SDS011;40640;48.130;11.356;2023-05-14T19:48:57;5.65;;;4.80;;
54745;SDS011;40640;48.130;11.356;2023-05-14T19:53:01;6.50;;;4.47;;
54745;SDS011;40640;48.130;11.356;2023-05-14T19:57:04;7.32;;;4.70;;
54745;SDS011;40640;48.130;11.356;2023-05-14T20:01:07;6.70;;;4.35;;
54745;SDS011;40640;48.130;11.356;2023-05-14T20:05:15;5.38;;;4.70;;
54745;SDS011;40640;48.130;11.356;2023-05-14T20:09:17;6.25;;;4.95;;
54745;SDS011;40640;48.130;11.356;2023-05-14T20:13:21;7.07;;;5.50;;
54745;SDS011;40640;48.130;11.356;2023-05-14T20:17:25;7.57;;;4.63;;
54745;SDS011;40640;48.130;11.356;2023-05-14T20:21:30;9.48;;;5.72;;
54745;SDS011;40640;48.130;11.356;2023-05-14T20:25:33;8.38;;;5.82;;
54745;SDS011;40640;48.130;11.356;2023-05-14T20:29:36;7.22;;;5.38;;
54745;SDS011;40640;48.130;11.356;2023-05-14T20:33:39;8.63;;;6.03;;
54745;SDS011;40640;48.130;11.356;2023-05-14T20:37:43;7.43;;;6.10;;
54745;SDS011;40640;48.130;11.356;2023-05-14T20:41:47;8.50;;;5.97;;
54745;SDS011;40640;48.130;11.356;2023-05-14T20:45:50;7.63;;;5.53;;
54745;SDS011;40640;48.130;11.356;2023-05-14T20:49:53;5.95;;;5.03;;
54745;SDS011;40640;48.130;11.356;2023-05-14T20:53:57;9.38;;;6.93;;
54745;SDS011;40640;48.130;11.356;2023-05-14T20:58:00;8.93;;;7.20;;
54745;SDS011;40640;48.130;11.356;2023-05-14T21:02:03;6.93;;;5.82;;
54745;SDS011;40640;48.130;11.356;2023-05-14T21:06:06;9.05;;;5.88;;
54745;SDS011;40640;48.130;11.356;2023-05-14T21:10:10;7.55;;;5.50;;
54745;SDS011;40640;48.130;11.356;2023-05-14T21:14:13;8.25;;;5.97;;
54745;SDS011;40640;48.130;11.356;2023-05-14T21:18:16;7.57;;;5.53;;
54745;SDS011;40640;48.130;11.356;2023-05-14T21:22:19;7.97;;;5.80;;
54745;SDS011;40640;48.130;11.356;2023-05-14T21:26:24;7.07;;;5.80;;
54745;SDS011;40640;48.130;11.356;2023-05-14T21:30:27;7.80;;;5.68;;
54745;SDS011;40640;48.130;11.356;2023-05-14T21:34:30;7.22;;;5.80;;
54745;SDS011;40640;48.130;11.356;2023-05-14T21:38:33;10.20;;;5.65;;
54745;SDS011;40640;48.130;11.356;2023-05-14T21:42:37;5.80;;;4.78;;
54745;SDS011;40640;48.130;11.356;2023-05-14T21:46:41;9.15;;;5.75;;
54745;SDS011;40640;48.130;11.356;2023-05-14T21:50:43;7.85;;;5.55;;
54745;SDS011;40640;48.130;11.356;2023-05-14T21:54:46;6.38;;;5.72;;
54745;SDS011;40640;48.130;11.356;2023-05-14T21:58:50;7.22;;;5.20;;
54745;SDS011;40640;48.130;11.356;2023-05-14T22:02:55;8.02;;;5.32;;
54745;SDS011;40640;48.130;11.356;2023-05-14T22:06:58;6.68;;;5.63;;
54745;SDS011;40640;48.130;11.356;2023-05-14T22:11:01;7.07;;;5.82;;
54745;SDS011;40640;48.130;11.356;2023-05-14T22:15:07;7.35;;;5.82;;
54745;SDS011;40640;48.130;11.356;2023-05-14T22:19:10;7.57;;;5.73;;
54745;SDS011;40640;48.130;11.356;2023-05-14T22:23:13;7.72;;;6.10;;
54745;SDS011;40640;48.130;11.356;2023-05-14T22:27:16;8.50;;;6.13;;
54745;SDS011;40640;48.130;11.356;2023-05-14T22:31:20;7.57;;;6.47;;
54745;SDS011;40640;48.130;11.356;2023-05-14T22:35:23;8.00;;;6.25;;
54745;SDS011;40640;48.130;11.356;2023-05-14T22:39:26;9.75;;;6.15;;
54745;SDS011;40640;48.130;11.356;2023-05-14T22:43:29;9.65;;;5.88;;
54745;SDS011;40640;48.130;11.356;2023-05-14T22:47:34;8.68;;;6.15;;
54745;SDS011;40640;48.130;11.356;2023-05-14T22:51:37;7.38;;;5.68;;
54745;SDS011;40640;48.130;11.356;2023-05-14T22:55:39;8.52;;;5.85;;
54745;SDS011;40640;48.130;11.356;2023-05-14T22:59:42;8.05;;;6.18;;
54745;SDS011;40640;48.130;11.356;2023-05-14T23:03:47;8.70;;;6.07;;
54745;SDS011;40640;48.130;11.356;2023-05-14T23:07:49;11.23;;;5.82;;
54745;SDS011;40640;48.130;11.356;2023-05-14T23:11:53;7.60;;;6.07;;
54745;SDS011;40640;48.130;11.356;2023-05-14T23:15:56;7.22;;;5.95;;
54745;SDS011;40640;48.130;11.356;2023-05-14T23:20:00;15.25;;;7.32;;
54745;SDS011;40640;48.130;11.356;2023-05-14T23:24:05;8.85;;;6.57;;
54745;SDS011;40640;48.130;11.356;2023-05-14T23:28:08;14.88;;;7.15;;
54745;SDS011;40640;48.130;11.356;2023-05-14T23:32:11;11.27;;;6.30;;
54745;SDS011;40640;48.130;11.356;2023-05-14T23:36:15;9.85;;;7.18;;
54745;SDS011;40640;48.130;11.356;2023-05-14T23:40:18;11.88;;;7.15;;
54745;SDS011;40640;48.130;11.356;2023-05-14T23:44:21;9.77;;;7.47;;
54745;SDS011;40640;48.130;11.356;2023-05-14T23:48:24;9.32;;;7.30;;